sensor_id;sensor_type;location;lat;lon;timestamp;pressure;altitude;pressure_sealevel;temperature;humidity
60897;BME280;46749;32.932;-117.130;2023-01-31T00:01:23;101501.22;;;22.76;39.58
60897;BME280;46749;32.932;-117.130;2023-01-31T00:03:54;101506.53;;;22.76;39.94
60897;BME280;46749;32.932;-117.130;2023-01-31T00:06:23;101508.28;;;22.76;39.64
60897;BME280;46749;32.932;-117.130;2023-01-31T00:08:51;101517.09;;;22.78;39.52
60897;BME280;46749;32.932;-117.130;2023-01-31T00:11:19;101522.38;;;22.85;38.83
60897;BME280;46749;32.932;-117.130;2023-01-31T00:13:46;101523.28;;;22.87;39.39
60897;BME280;46749;32.932;-117.130;2023-01-31T00:16:14;101526.84;;;22.88;39.10
60897;BME280;46749;32.932;-117.130;2023-01-31T00:18:41;101532.13;;;22.86;39.36
60897;BME280;46749;32.932;-117.130;2023-01-31T00:21:13;101520.63;;;22.86;39.45
60897;BME280;46749;32.932;-117.130;2023-01-31T00:23:41;101524.16;;;22.85;39.42
60897;BME280;46749;32.932;-117.130;2023-01-31T00:26:13;101517.09;;;22.84;39.84
60897;BME280;46749;32.932;-117.130;2023-01-31T00:28:40;101518.00;;;22.83;39.79
60897;BME280;46749;32.932;-117.130;2023-01-31T00:31:07;101524.16;;;22.83;40.10
60897;BME280;46749;32.932;-117.130;2023-01-31T00:33:35;101527.69;;;22.82;39.58
60897;BME280;46749;32.932;-117.130;2023-01-31T00:36:07;101525.03;;;22.84;39.15
60897;BME280;46749;32.932;-117.130;2023-01-31T00:38:34;101534.75;;;22.93;39.00
60897;BME280;46749;32.932;-117.130;2023-01-31T00:41:01;101533.88;;;23.03;38.79
60897;BME280;46749;32.932;-117.130;2023-01-31T00:43:29;101543.56;;;23.10;38.76
60897;BME280;46749;32.932;-117.130;2023-01-31T00:45:55;101536.47;;;23.18;38.83
60897;BME280;46749;32.932;-117.130;2023-01-31T00:48:22;101526.75;;;23.23;38.52
60897;BME280;46749;32.932;-117.130;2023-01-31T00:50:48;101531.16;;;23.29;38.29
60897;BME280;46749;32.932;-117.130;2023-01-31T00:53:15;101538.19;;;23.37;38.28
60897;BME280;46749;32.932;-117.130;2023-01-31T00:55:43;101530.25;;;23.39;38.20
60897;BME280;46749;32.932;-117.130;2023-01-31T00:58:09;101536.44;;;23.33;38.60
60897;BME280;46749;32.932;-117.130;2023-01-31T01:00:35;101545.25;;;23.35;38.45
60897;BME280;46749;32.932;-117.130;2023-01-31T01:03:02;101544.38;;;23.39;38.79
60897;BME280;46749;32.932;-117.130;2023-01-31T01:05:28;101537.25;;;23.48;38.39
60897;BME280;46749;32.932;-117.130;2023-01-31T01:07:54;101535.47;;;23.53;38.39
60897;BME280;46749;32.932;-117.130;2023-01-31T01:10:20;101537.25;;;23.49;38.69
60897;BME280;46749;32.932;-117.130;2023-01-31T01:12:47;101539.06;;;23.46;38.67
60897;BME280;46749;32.932;-117.130;2023-01-31T01:15:13;101545.22;;;23.49;38.59
60897;BME280;46749;32.932;-117.130;2023-01-31T01:17:39;101548.72;;;23.56;38.33
60897;BME280;46749;32.932;-117.130;2023-01-31T01:20:06;101546.06;;;23.62;38.35
60897;BME280;46749;32.932;-117.130;2023-01-31T01:22:33;101548.72;;;23.59;38.03
60897;BME280;46749;32.932;-117.130;2023-01-31T01:25:01;101552.25;;;23.55;38.30
60897;BME280;46749;32.932;-117.130;2023-01-31T01:27:27;101547.81;;;23.57;38.52
60897;BME280;46749;32.932;-117.130;2023-01-31T01:29:54;101545.19;;;23.63;38.75
60897;BME280;46749;32.932;-117.130;2023-01-31T01:32:20;101546.94;;;23.70;38.14
60897;BME280;46749;32.932;-117.130;2023-01-31T01:34:46;101548.69;;;23.71;37.99
60897;BME280;46749;32.932;-117.130;2023-01-31T01:37:12;101549.59;;;23.67;38.60
60897;BME280;46749;32.932;-117.130;2023-01-31T01:39:51;101548.69;;;23.68;38.54
60897;BME280;46749;32.932;-117.130;2023-01-31T01:42:20;101557.53;;;23.73;38.23
60897;BME280;46749;32.932;-117.130;2023-01-31T01:44:50;101569.00;;;23.78;38.02
60897;BME280;46749;32.932;-117.130;2023-01-31T01:47:39;101564.53;;;23.86;37.65
60897;BME280;46749;32.932;-117.130;2023-01-31T01:52:47;101580.47;;;23.80;38.05
60897;BME280;46749;32.932;-117.130;2023-01-31T01:55:40;101576.94;;;23.75;38.17
60897;BME280;46749;32.932;-117.130;2023-01-31T01:58:14;101579.63;;;23.74;38.26
60897;BME280;46749;32.932;-117.130;2023-01-31T02:00:42;101582.25;;;23.78;38.33
60897;BME280;46749;32.932;-117.130;2023-01-31T02:03:09;101586.63;;;23.87;37.65
60897;BME280;46749;32.932;-117.130;2023-01-31T02:05:51;101585.75;;;23.86;38.24
60897;BME280;46749;32.932;-117.130;2023-01-31T02:08:20;101583.09;;;23.82;38.44
60897;BME280;46749;32.932;-117.130;2023-01-31T02:11:01;101587.56;;;23.78;38.05
60897;BME280;46749;32.932;-117.130;2023-01-31T02:13:29;101586.66;;;23.84;38.28
60897;BME280;46749;32.932;-117.130;2023-01-31T02:15:56;101591.97;;;23.79;38.21
60897;BME280;46749;32.932;-117.130;2023-01-31T02:18:24;101601.72;;;23.74;38.33
60897;BME280;46749;32.932;-117.130;2023-01-31T02:35:51;101595.59;;;23.48;38.37
60897;BME280;46749;32.932;-117.130;2023-01-31T02:38:41;101608.00;;;23.39;38.28
60897;BME280;46749;32.932;-117.130;2023-01-31T02:44:12;101612.44;;;23.34;38.69
60897;BME280;46749;32.932;-117.130;2023-01-31T02:47:40;101613.31;;;23.29;38.44
60897;BME280;46749;32.932;-117.130;2023-01-31T02:53:04;101609.81;;;23.21;38.77
60897;BME280;46749;32.932;-117.130;2023-01-31T02:55:36;101613.34;;;23.15;38.55
60897;BME280;46749;32.932;-117.130;2023-01-31T02:58:27;101611.59;;;23.09;38.34
60897;BME280;46749;32.932;-117.130;2023-01-31T03:00:57;101612.47;;;23.07;38.48
60897;BME280;46749;32.932;-117.130;2023-01-31T03:03:27;101601.88;;;23.01;38.64
60897;BME280;46749;32.932;-117.130;2023-01-31T03:09:07;101602.75;;;22.92;38.45
60897;BME280;46749;32.932;-117.130;2023-01-31T03:16:59;101601.88;;;22.82;38.38
60897;BME280;46749;32.932;-117.130;2023-01-31T03:19:54;101613.31;;;22.78;38.61
60897;BME280;46749;32.932;-117.130;2023-01-31T03:22:28;101613.31;;;22.72;38.24
60897;BME280;46749;32.932;-117.130;2023-01-31T03:24:57;101614.19;;;22.68;38.45
60897;BME280;46749;32.932;-117.130;2023-01-31T03:27:25;101626.56;;;22.63;38.49
60897;BME280;46749;32.932;-117.130;2023-01-31T03:29:57;101627.44;;;22.60;38.27
60897;BME280;46749;32.932;-117.130;2023-01-31T03:32:38;101626.56;;;22.57;38.50
60897;BME280;46749;32.932;-117.130;2023-01-31T03:35:07;101626.53;;;22.54;38.15
60897;BME280;46749;32.932;-117.130;2023-01-31T03:38:10;101623.00;;;22.49;38.46
60897;BME280;46749;32.932;-117.130;2023-01-31T03:40:52;101621.25;;;22.46;38.25
60897;BME280;46749;32.932;-117.130;2023-01-31T03:46:18;101630.91;;;22.37;38.12
60897;BME280;46749;32.932;-117.130;2023-01-31T03:48:48;101642.38;;;22.34;38.08
60897;BME280;46749;32.932;-117.130;2023-01-31T03:51:20;101643.25;;;22.30;38.21
60897;BME280;46749;32.932;-117.130;2023-01-31T03:53:52;101649.44;;;22.27;38.37
60897;BME280;46749;32.932;-117.130;2023-01-31T03:56:31;101645.88;;;22.22;38.33
60897;BME280;46749;32.932;-117.130;2023-01-31T03:59:02;101660.00;;;22.21;38.65
60897;BME280;46749;32.932;-117.130;2023-01-31T04:01:31;101655.56;;;22.19;38.60
60897;BME280;46749;32.932;-117.130;2023-01-31T04:04:20;101658.22;;;22.17;38.78
60897;BME280;46749;32.932;-117.130;2023-01-31T04:06:48;101674.97;;;22.18;38.83
60897;BME280;46749;32.932;-117.130;2023-01-31T04:09:15;101676.72;;;22.16;38.79
60897;BME280;46749;32.932;-117.130;2023-01-31T04:11:42;101674.09;;;22.14;38.85
60897;BME280;46749;32.932;-117.130;2023-01-31T04:14:11;101674.06;;;22.11;38.88
60897;BME280;46749;32.932;-117.130;2023-01-31T04:16:38;101671.38;;;22.06;38.88
60897;BME280;46749;32.932;-117.130;2023-01-31T04:19:04;101681.06;;;22.06;38.96
60897;BME280;46749;32.932;-117.130;2023-01-31T04:21:31;101679.28;;;22.05;38.89
60897;BME280;46749;32.932;-117.130;2023-01-31T04:23:57;101680.19;;;22.04;38.90
60897;BME280;46749;32.932;-117.130;2023-01-31T04:26:23;101681.94;;;22.00;39.01
60897;BME280;46749;32.932;-117.130;2023-01-31T04:28:50;101677.50;;;21.98;38.93
60897;BME280;46749;32.932;-117.130;2023-01-31T04:31:16;101688.09;;;21.95;38.94
60897;BME280;46749;32.932;-117.130;2023-01-31T04:33:42;101691.59;;;21.94;39.07
60897;BME280;46749;32.932;-117.130;2023-01-31T04:36:09;101687.16;;;21.93;38.82
60897;BME280;46749;32.932;-117.130;2023-01-31T04:38:35;101695.97;;;21.90;38.86
60897;BME280;46749;32.932;-117.130;2023-01-31T04:41:01;101684.50;;;21.87;39.04
60897;BME280;46749;32.932;-117.130;2023-01-31T04:43:27;101686.25;;;21.85;39.07
60897;BME280;46749;32.932;-117.130;2023-01-31T04:45:54;101696.84;;;21.85;39.11
60897;BME280;46749;32.932;-117.130;2023-01-31T04:48:20;101694.19;;;21.83;38.95
60897;BME280;46749;32.932;-117.130;2023-01-31T04:50:46;101700.31;;;21.80;39.13
60897;BME280;46749;32.932;-117.130;2023-01-31T04:53:12;101699.44;;;21.78;39.12
60897;BME280;46749;32.932;-117.130;2023-01-31T04:55:38;101702.09;;;21.75;38.98
60897;BME280;46749;32.932;-117.130;2023-01-31T04:58:04;101704.69;;;21.74;39.17
60897;BME280;46749;32.932;-117.130;2023-01-31T05:00:31;101689.72;;;21.73;39.26
60897;BME280;46749;32.932;-117.130;2023-01-31T05:02:57;101687.94;;;21.70;39.14
60897;BME280;46749;32.932;-117.130;2023-01-31T05:05:24;101691.44;;;21.68;39.07
60897;BME280;46749;32.932;-117.130;2023-01-31T05:07:50;101695.84;;;21.64;39.00
60897;BME280;46749;32.932;-117.130;2023-01-31T05:10:16;101692.28;;;21.62;39.18
60897;BME280;46749;32.932;-117.130;2023-01-31T05:12:42;101687.88;;;21.61;39.55
60897;BME280;46749;32.932;-117.130;2023-01-31T05:15:10;101685.22;;;21.60;39.35
60897;BME280;46749;32.932;-117.130;2023-01-31T05:17:37;101680.81;;;21.57;39.00
60897;BME280;46749;32.932;-117.130;2023-01-31T05:20:04;101687.84;;;21.55;38.97
60897;BME280;46749;32.932;-117.130;2023-01-31T05:22:30;101688.72;;;21.52;39.12
60897;BME280;46749;32.932;-117.130;2023-01-31T05:24:57;101695.75;;;21.52;39.14
60897;BME280;46749;32.932;-117.130;2023-01-31T05:27:23;101691.34;;;21.51;39.20
60897;BME280;46749;32.932;-117.130;2023-01-31T05:29:50;101695.72;;;21.49;39.29
60897;BME280;46749;32.932;-117.130;2023-01-31T05:32:36;101697.47;;;21.45;39.21
60897;BME280;46749;32.932;-117.130;2023-01-31T05:35:04;101696.59;;;21.45;39.28
60897;BME280;46749;32.932;-117.130;2023-01-31T05:37:30;101698.31;;;21.43;39.45
60897;BME280;46749;32.932;-117.130;2023-01-31T05:39:56;101698.31;;;21.43;39.55
60897;BME280;46749;32.932;-117.130;2023-01-31T05:42:23;101701.84;;;21.40;39.23
60897;BME280;46749;32.932;-117.130;2023-01-31T05:44:49;101700.91;;;21.37;39.24
60897;BME280;46749;32.932;-117.130;2023-01-31T05:47:15;101700.03;;;21.35;39.03
60897;BME280;46749;32.932;-117.130;2023-01-31T05:49:41;101702.63;;;21.30;39.32
60897;BME280;46749;32.932;-117.130;2023-01-31T05:52:07;101705.25;;;21.28;39.22
60897;BME280;46749;32.932;-117.130;2023-01-31T05:54:34;101697.28;;;21.25;39.00
60897;BME280;46749;32.932;-117.130;2023-01-31T05:57:00;101697.25;;;21.22;38.75
60897;BME280;46749;32.932;-117.130;2023-01-31T05:59:26;101698.13;;;21.20;38.88
60897;BME280;46749;32.932;-117.130;2023-01-31T06:01:55;101699.84;;;21.16;38.87
60897;BME280;46749;32.932;-117.130;2023-01-31T06:04:21;101703.34;;;21.14;38.57
60897;BME280;46749;32.932;-117.130;2023-01-31T06:06:47;101709.47;;;21.11;38.97
60897;BME280;46749;32.932;-117.130;2023-01-31T06:09:13;101702.44;;;21.09;38.74
60897;BME280;46749;32.932;-117.130;2023-01-31T06:11:39;101698.88;;;21.05;38.66
60897;BME280;46749;32.932;-117.130;2023-01-31T06:14:07;101701.50;;;21.02;38.73
60897;BME280;46749;32.932;-117.130;2023-01-31T06:16:33;101708.53;;;21.00;38.91
60897;BME280;46749;32.932;-117.130;2023-01-31T06:18:59;101708.47;;;20.97;38.69
60897;BME280;46749;32.932;-117.130;2023-01-31T06:21:26;101712.00;;;20.94;38.68
60897;BME280;46749;32.932;-117.130;2023-01-31T06:24:13;101717.22;;;20.90;38.51
60897;BME280;46749;32.932;-117.130;2023-01-31T06:26:39;101711.00;;;20.86;38.45
60897;BME280;46749;32.932;-117.130;2023-01-31T06:29:05;101715.47;;;20.89;38.24
60897;BME280;46749;32.932;-117.130;2023-01-31T06:31:31;101724.22;;;20.85;38.47
60897;BME280;46749;32.932;-117.130;2023-01-31T06:33:57;101721.50;;;20.80;38.56
60897;BME280;46749;32.932;-117.130;2023-01-31T06:36:23;101717.97;;;20.77;38.54
60897;BME280;46749;32.932;-117.130;2023-01-31T06:38:53;101721.44;;;20.74;38.30
60897;BME280;46749;32.932;-117.130;2023-01-31T06:41:19;101733.75;;;20.70;38.36
60897;BME280;46749;32.932;-117.130;2023-01-31T06:43:45;101727.56;;;20.68;38.37
60897;BME280;46749;32.932;-117.130;2023-01-31T06:46:12;101729.28;;;20.65;38.12
60897;BME280;46749;32.932;-117.130;2023-01-31T06:48:38;101727.50;;;20.62;38.48
60897;BME280;46749;32.932;-117.130;2023-01-31T06:51:04;101725.69;;;20.60;38.09
60897;BME280;46749;32.932;-117.130;2023-01-31T06:53:31;101737.13;;;20.57;38.43
60897;BME280;46749;32.932;-117.130;2023-01-31T06:55:57;101739.72;;;20.54;38.09
60897;BME280;46749;32.932;-117.130;2023-01-31T06:58:23;101740.59;;;20.53;38.63
60897;BME280;46749;32.932;-117.130;2023-01-31T07:00:49;101737.06;;;20.53;38.62
60897;BME280;46749;32.932;-117.130;2023-01-31T07:03:15;101737.06;;;20.51;38.64
60897;BME280;46749;32.932;-117.130;2023-01-31T07:05:44;101738.75;;;20.47;38.60
60897;BME280;46749;32.932;-117.130;2023-01-31T07:08:11;101744.91;;;20.46;38.45
60897;BME280;46749;32.932;-117.130;2023-01-31T07:10:38;101751.88;;;20.43;38.13
60897;BME280;46749;32.932;-117.130;2023-01-31T07:13:04;101753.59;;;20.41;38.58
60897;BME280;46749;32.932;-117.130;2023-01-31T07:15:31;101752.69;;;20.39;38.65
60897;BME280;46749;32.932;-117.130;2023-01-31T07:17:58;101753.53;;;20.35;38.50
60897;BME280;46749;32.932;-117.130;2023-01-31T07:20:24;101750.84;;;20.32;38.38
60897;BME280;46749;32.932;-117.130;2023-01-31T07:22:58;101760.47;;;20.30;38.28
60897;BME280;46749;32.932;-117.130;2023-01-31T07:25:27;101759.59;;;20.28;38.44
60897;BME280;46749;32.932;-117.130;2023-01-31T07:27:56;101756.94;;;20.28;38.97
60897;BME280;46749;32.932;-117.130;2023-01-31T07:30:22;101757.81;;;20.25;38.52
60897;BME280;46749;32.932;-117.130;2023-01-31T07:32:49;101756.03;;;20.24;38.44
60897;BME280;46749;32.932;-117.130;2023-01-31T07:35:15;101760.38;;;20.20;38.34
60897;BME280;46749;32.932;-117.130;2023-01-31T07:37:41;101758.59;;;20.19;38.50
60897;BME280;46749;32.932;-117.130;2023-01-31T07:40:09;101756.78;;;20.17;38.40
60897;BME280;46749;32.932;-117.130;2023-01-31T07:42:36;101760.28;;;20.14;38.32
60897;BME280;46749;32.932;-117.130;2023-01-31T07:45:02;101758.50;;;20.12;38.64
60897;BME280;46749;32.932;-117.130;2023-01-31T07:47:29;101753.19;;;20.09;38.16
60897;BME280;46749;32.932;-117.130;2023-01-31T07:49:55;101757.53;;;20.05;38.14
60897;BME280;46749;32.932;-117.130;2023-01-31T07:52:21;101751.34;;;20.03;38.17
60897;BME280;46749;32.932;-117.130;2023-01-31T07:54:47;101755.72;;;20.01;38.50
60897;BME280;46749;32.932;-117.130;2023-01-31T07:57:13;101759.19;;;19.99;38.46
60897;BME280;46749;32.932;-117.130;2023-01-31T07:59:43;101771.47;;;19.97;38.44
60897;BME280;46749;32.932;-117.130;2023-01-31T08:02:13;101770.56;;;19.93;38.37
60897;BME280;46749;32.932;-117.130;2023-01-31T08:04:58;101780.16;;;19.91;38.27
60897;BME280;46749;32.932;-117.130;2023-01-31T08:07:25;101781.91;;;19.89;38.40
60897;BME280;46749;32.932;-117.130;2023-01-31T08:09:52;101782.72;;;19.85;38.24
60897;BME280;46749;32.932;-117.130;2023-01-31T08:12:18;101781.81;;;19.83;37.99
60897;BME280;46749;32.932;-117.130;2023-01-31T08:14:44;101778.28;;;19.81;38.19
60897;BME280;46749;32.932;-117.130;2023-01-31T08:17:10;101778.22;;;19.79;37.92
60897;BME280;46749;32.932;-117.130;2023-01-31T08:19:37;101768.53;;;19.77;38.19
60897;BME280;46749;32.932;-117.130;2023-01-31T08:22:04;101774.66;;;19.74;38.38
60897;BME280;46749;32.932;-117.130;2023-01-31T08:24:31;101776.38;;;19.72;38.03
60897;BME280;46749;32.932;-117.130;2023-01-31T08:26:58;101778.09;;;19.70;38.05
60897;BME280;46749;32.932;-117.130;2023-01-31T08:29:25;101772.78;;;19.67;38.39
60897;BME280;46749;32.932;-117.130;2023-01-31T08:31:52;101763.94;;;19.63;38.09
60897;BME280;46749;32.932;-117.130;2023-01-31T08:34:18;101760.44;;;19.63;37.85
60897;BME280;46749;32.932;-117.130;2023-01-31T08:36:45;101764.75;;;19.59;37.85
60897;BME280;46749;32.932;-117.130;2023-01-31T08:39:11;101771.72;;;19.57;38.24
60897;BME280;46749;32.932;-117.130;2023-01-31T08:41:38;101774.34;;;19.56;38.04
60897;BME280;46749;32.932;-117.130;2023-01-31T08:44:05;101770.78;;;19.54;38.19
60897;BME280;46749;32.932;-117.130;2023-01-31T08:46:33;101761.06;;;19.50;37.69
60897;BME280;46749;32.932;-117.130;2023-01-31T08:49:01;101762.75;;;19.46;38.18
60897;BME280;46749;32.932;-117.130;2023-01-31T08:51:29;101767.13;;;19.46;38.08
60897;BME280;46749;32.932;-117.130;2023-01-31T08:53:56;101766.19;;;19.42;38.13
60897;BME280;46749;32.932;-117.130;2023-01-31T08:56:22;101772.28;;;19.39;37.82
60897;BME280;46749;32.932;-117.130;2023-01-31T08:58:51;101781.06;;;19.37;37.83
60897;BME280;46749;32.932;-117.130;2023-01-31T09:01:19;101779.28;;;19.36;38.20
60897;BME280;46749;32.932;-117.130;2023-01-31T09:03:47;101777.44;;;19.32;38.10
60897;BME280;46749;32.932;-117.130;2023-01-31T09:06:18;101772.16;;;19.30;38.09
60897;BME280;46749;32.932;-117.130;2023-01-31T09:08:45;101787.91;;;19.29;37.96
60897;BME280;46749;32.932;-117.130;2023-01-31T09:11:13;101779.97;;;19.26;38.18
60897;BME280;46749;32.932;-117.130;2023-01-31T09:13:41;101782.59;;;19.24;37.84
60897;BME280;46749;32.932;-117.130;2023-01-31T09:16:10;101780.75;;;19.22;37.68
60897;BME280;46749;32.932;-117.130;2023-01-31T09:18:38;101785.13;;;19.20;37.99
60897;BME280;46749;32.932;-117.130;2023-01-31T09:23:31;101777.13;;;19.15;37.87
60897;BME280;46749;32.932;-117.130;2023-01-31T09:25:58;101778.88;;;19.13;37.87
60897;BME280;46749;32.932;-117.130;2023-01-31T09:28:24;101779.69;;;19.10;38.04
60897;BME280;46749;32.932;-117.130;2023-01-31T09:30:51;101784.91;;;19.07;37.88
60897;BME280;46749;32.932;-117.130;2023-01-31T09:33:21;101784.00;;;19.05;38.11
60897;BME280;46749;32.932;-117.130;2023-01-31T09:35:59;101786.56;;;19.02;37.81
60897;BME280;46749;32.932;-117.130;2023-01-31T09:38:26;101783.91;;;19.01;37.90
60897;BME280;46749;32.932;-117.130;2023-01-31T09:40:53;101779.47;;;18.98;37.78
60897;BME280;46749;32.932;-117.130;2023-01-31T09:43:23;101787.31;;;18.97;38.07
60897;BME280;46749;32.932;-117.130;2023-01-31T09:45:55;101791.66;;;18.93;38.07
60897;BME280;46749;32.932;-117.130;2023-01-31T09:48:28;101797.75;;;18.91;38.05
60897;BME280;46749;32.932;-117.130;2023-01-31T09:50:57;101789.81;;;18.89;38.05
60897;BME280;46749;32.932;-117.130;2023-01-31T09:53:29;101794.19;;;18.87;37.95
60897;BME280;46749;32.932;-117.130;2023-01-31T09:56:11;101796.72;;;18.84;37.98
60897;BME280;46749;32.932;-117.130;2023-01-31T10:04:08;101805.38;;;18.77;37.84
60897;BME280;46749;32.932;-117.130;2023-01-31T10:06:55;101807.09;;;18.75;37.95
60897;BME280;46749;32.932;-117.130;2023-01-31T10:12:21;101812.22;;;18.69;37.77
60897;BME280;46749;32.932;-117.130;2023-01-31T10:15:02;101807.75;;;18.66;37.85
60897;BME280;46749;32.932;-117.130;2023-01-31T10:17:40;101826.13;;;18.65;37.86
60897;BME280;46749;32.932;-117.130;2023-01-31T10:20:19;101824.34;;;18.62;38.09
60897;BME280;46749;32.932;-117.130;2023-01-31T10:36:32;101815.34;;;18.52;38.13
60897;BME280;46749;32.932;-117.130;2023-01-31T10:39:05;101815.31;;;18.49;38.22
60897;BME280;46749;32.932;-117.130;2023-01-31T10:41:46;101818.75;;;18.47;38.27
60897;BME280;46749;32.932;-117.130;2023-01-31T10:44:24;101815.19;;;18.45;38.18
60897;BME280;46749;32.932;-117.130;2023-01-31T10:46:56;101816.06;;;18.44;38.21
60897;BME280;46749;32.932;-117.130;2023-01-31T10:49:25;101819.47;;;18.40;38.15
60897;BME280;46749;32.932;-117.130;2023-01-31T10:57:22;101830.75;;;18.34;37.93
60897;BME280;46749;32.932;-117.130;2023-01-31T10:59:49;101815.78;;;18.31;38.17
60897;BME280;46749;32.932;-117.130;2023-01-31T11:02:24;101828.91;;;18.30;38.33
60897;BME280;46749;32.932;-117.130;2023-01-31T11:04:54;101838.56;;;18.29;38.60
60897;BME280;46749;32.932;-117.130;2023-01-31T11:07:21;101824.47;;;18.27;38.32
60897;BME280;46749;32.932;-117.130;2023-01-31T11:09:51;101834.97;;;18.27;38.26
60897;BME280;46749;32.932;-117.130;2023-01-31T11:12:40;101837.56;;;18.24;38.33
60897;BME280;46749;32.932;-117.130;2023-01-31T11:15:18;101839.22;;;18.21;38.59
60897;BME280;46749;32.932;-117.130;2023-01-31T11:17:45;101834.81;;;18.20;38.56
60897;BME280;46749;32.932;-117.130;2023-01-31T11:22:48;101838.19;;;18.14;38.37
60897;BME280;46749;32.932;-117.130;2023-01-31T11:25:19;101832.88;;;18.11;38.21
60897;BME280;46749;32.932;-117.130;2023-01-31T11:27:47;101843.38;;;18.11;38.54
60897;BME280;46749;32.932;-117.130;2023-01-31T11:30:37;101838.94;;;18.09;38.76
60897;BME280;46749;32.932;-117.130;2023-01-31T11:33:05;101839.81;;;18.09;38.46
60897;BME280;46749;32.932;-117.130;2023-01-31T11:35:33;101837.16;;;18.08;38.46
60897;BME280;46749;32.932;-117.130;2023-01-31T11:38:03;101831.84;;;18.04;38.62
60897;BME280;46749;32.932;-117.130;2023-01-31T11:40:43;101836.16;;;18.02;38.63
60897;BME280;46749;32.932;-117.130;2023-01-31T11:45:51;101837.84;;;17.99;38.58
60897;BME280;46749;32.932;-117.130;2023-01-31T11:48:23;101849.16;;;17.96;38.46
60897;BME280;46749;32.932;-117.130;2023-01-31T11:50:58;101837.75;;;17.96;38.63
60897;BME280;46749;32.932;-117.130;2023-01-31T11:53:49;101840.34;;;17.94;38.75
60897;BME280;46749;32.932;-117.130;2023-01-31T11:56:22;101842.06;;;17.92;38.64
60897;BME280;46749;32.932;-117.130;2023-01-31T11:58:53;101841.19;;;17.92;38.63
60897;BME280;46749;32.932;-117.130;2023-01-31T12:01:23;101837.59;;;17.90;38.55
60897;BME280;46749;32.932;-117.130;2023-01-31T12:06:32;101837.50;;;17.85;38.56
60897;BME280;46749;32.932;-117.130;2023-01-31T12:09:00;101831.31;;;17.83;38.52
60897;BME280;46749;32.932;-117.130;2023-01-31T12:11:30;101833.91;;;17.82;38.43
60897;BME280;46749;32.932;-117.130;2023-01-31T12:16:33;101829.47;;;17.79;38.79
60897;BME280;46749;32.932;-117.130;2023-01-31T12:27:31;101823.09;;;17.71;38.74
60897;BME280;46749;32.932;-117.130;2023-01-31T12:30:12;101825.72;;;17.71;38.74
60897;BME280;46749;32.932;-117.130;2023-01-31T12:33:05;101823.88;;;17.67;38.84
60897;BME280;46749;32.932;-117.130;2023-01-31T12:41:32;101823.78;;;17.64;38.81
60897;BME280;46749;32.932;-117.130;2023-01-31T12:44:33;101815.84;;;17.61;38.85
60897;BME280;46749;32.932;-117.130;2023-01-31T12:50:04;101814.91;;;17.59;38.87
60897;BME280;46749;32.932;-117.130;2023-01-31T12:52:48;101813.06;;;17.55;38.89
60897;BME280;46749;32.932;-117.130;2023-01-31T13:04:24;101815.53;;;17.48;39.08
60897;BME280;46749;32.932;-117.130;2023-01-31T13:06:58;101811.19;;;17.49;39.22
60897;BME280;46749;32.932;-117.130;2023-01-31T13:09:35;101813.72;;;17.46;38.88
60897;BME280;46749;32.932;-117.130;2023-01-31T13:12:06;101811.06;;;17.44;38.99
60897;BME280;46749;32.932;-117.130;2023-01-31T13:14:43;101820.63;;;17.42;38.92
60897;BME280;46749;32.932;-117.130;2023-01-31T13:17:16;101819.69;;;17.40;39.11
60897;BME280;46749;32.932;-117.130;2023-01-31T13:19:49;101822.31;;;17.40;39.31
60897;BME280;46749;32.932;-117.130;2023-01-31T13:22:26;101817.03;;;17.39;39.08
60897;BME280;46749;32.932;-117.130;2023-01-31T13:27:42;101820.47;;;17.36;39.06
60897;BME280;46749;32.932;-117.130;2023-01-31T13:30:20;101830.88;;;17.33;38.86
60897;BME280;46749;32.932;-117.130;2023-01-31T13:32:50;101837.88;;;17.33;39.00
60897;BME280;46749;32.932;-117.130;2023-01-31T13:35:25;101829.97;;;17.31;38.92
60897;BME280;46749;32.932;-117.130;2023-01-31T13:37:58;101829.09;;;17.31;39.02
60897;BME280;46749;32.932;-117.130;2023-01-31T13:40:33;101827.31;;;17.30;38.94
60897;BME280;46749;32.932;-117.130;2023-01-31T13:43:10;101834.22;;;17.27;38.95
60897;BME280;46749;32.932;-117.130;2023-01-31T13:45:47;101831.56;;;17.26;39.07
60897;BME280;46749;32.932;-117.130;2023-01-31T13:51:21;101838.44;;;17.21;39.00
60897;BME280;46749;32.932;-117.130;2023-01-31T13:54:54;101845.44;;;17.20;39.06
60897;BME280;46749;32.932;-117.130;2023-01-31T13:56:56;101847.19;;;17.21;39.04
60897;BME280;46749;32.932;-117.130;2023-01-31T13:59:30;101841.91;;;17.20;39.14
60897;BME280;46749;32.932;-117.130;2023-01-31T14:01:59;101845.38;;;17.19;39.10
60897;BME280;46749;32.932;-117.130;2023-01-31T14:04:28;101839.22;;;17.17;39.10
60897;BME280;46749;32.932;-117.130;2023-01-31T14:09:35;101849.63;;;17.14;39.01
60897;BME280;46749;32.932;-117.130;2023-01-31T14:14:55;101857.44;;;17.11;39.25
60897;BME280;46749;32.932;-117.130;2023-01-31T14:27:21;101865.97;;;17.04;39.05
60897;BME280;46749;32.932;-117.130;2023-01-31T14:43:50;101883.22;;;16.95;38.99
60897;BME280;46749;32.932;-117.130;2023-01-31T14:46:44;101891.91;;;16.93;39.29
60897;BME280;46749;32.932;-117.130;2023-01-31T14:52:27;101905.91;;;16.93;39.04
60897;BME280;46749;32.932;-117.130;2023-01-31T14:57:43;101910.97;;;16.87;39.27
60897;BME280;46749;32.932;-117.130;2023-01-31T15:05:38;101918.72;;;16.83;39.22